sensor_id;sensor_type;location;lat;lon;timestamp;pressure;altitude;pressure_sealevel;temperature;humidity
39729;BME280;25402;42.004;23.088;2024-02-23T00:01:24;97362.97;;;5.30;50.71
39729;BME280;25402;42.004;23.088;2024-02-23T00:03:51;97390.25;;;5.51;50.36
39729;BME280;25402;42.004;23.088;2024-02-23T00:06:22;97377.59;;;5.62;50.47
39729;BME280;25402;42.004;23.088;2024-02-23T00:08:53;97362.69;;;5.41;50.54
39729;BME280;25402;42.004;23.088;2024-02-23T00:11:20;97375.91;;;5.35;51.27
39729;BME280;25402;42.004;23.088;2024-02-23T00:13:47;97375.38;;;5.31;51.68
39729;BME280;25402;42.004;23.088;2024-02-23T00:16:14;97362.75;;;5.49;51.14
39729;BME280;25402;42.004;23.088;2024-02-23T00:18:41;97364.47;;;5.59;51.08
39729;BME280;25402;42.004;23.088;2024-02-23T00:21:08;97351.78;;;5.69;50.30
39729;BME280;25402;42.004;23.088;2024-02-23T00:23:37;97338.34;;;5.61;50.44
39729;BME280;25402;42.004;23.088;2024-02-23T00:26:04;97345.56;;;5.94;49.87
39729;BME280;25402;42.004;23.088;2024-02-23T00:28:31;97345.44;;;6.04;49.64
39729;BME280;25402;42.004;23.088;2024-02-23T00:30:58;97347.69;;;6.24;48.61
39729;BME280;25402;42.004;23.088;2024-02-23T00:33:25;97345.00;;;6.33;48.07
39729;BME280;25402;42.004;23.088;2024-02-23T00:35:52;97321.00;;;6.31;47.76
39729;BME280;25402;42.004;23.088;2024-02-23T00:38:19;97333.09;;;6.35;47.51
39729;BME280;25402;42.004;23.088;2024-02-23T00:40:48;97318.19;;;5.91;48.30
39729;BME280;25402;42.004;23.088;2024-02-23T00:43:15;97312.19;;;6.05;47.73
39729;BME280;25402;42.004;23.088;2024-02-23T00:45:42;97318.84;;;6.43;47.06
39729;BME280;25402;42.004;23.088;2024-02-23T00:48:09;97322.38;;;6.43;47.13
39729;BME280;25402;42.004;23.088;2024-02-23T00:50:38;97325.72;;;6.37;46.76
39729;BME280;25402;42.004;23.088;2024-02-23T00:53:05;97325.44;;;6.56;46.42
39729;BME280;25402;42.004;23.088;2024-02-23T00:55:32;97326.78;;;6.61;46.24
39729;BME280;25402;42.004;23.088;2024-02-23T00:58:01;97311.66;;;6.59;46.21
39729;BME280;25402;42.004;23.088;2024-02-23T01:00:29;97322.06;;;6.63;46.41
39729;BME280;25402;42.004;23.088;2024-02-23T01:02:56;97311.47;;;6.61;46.17
39729;BME280;25402;42.004;23.088;2024-02-23T01:05:24;97330.66;;;6.74;46.25
39729;BME280;25402;42.004;23.088;2024-02-23T01:07:52;97326.28;;;6.73;46.30
39729;BME280;25402;42.004;23.088;2024-02-23T01:10:19;97323.44;;;6.75;46.20
39729;BME280;25402;42.004;23.088;2024-02-23T01:12:46;97331.81;;;6.80;46.07
39729;BME280;25402;42.004;23.088;2024-02-23T01:15:14;97294.69;;;6.67;45.77
39729;BME280;25402;42.004;23.088;2024-02-23T01:17:41;97309.47;;;6.71;45.90
39729;BME280;25402;42.004;23.088;2024-02-23T01:20:09;97324.59;;;6.80;45.39
39729;BME280;25402;42.004;23.088;2024-02-23T01:22:36;97320.91;;;6.73;45.14
39729;BME280;25402;42.004;23.088;2024-02-23T01:25:04;97318.53;;;6.78;45.00
39729;BME280;25402;42.004;23.088;2024-02-23T01:27:31;97315.22;;;6.76;45.05
39729;BME280;25402;42.004;23.088;2024-02-23T01:29:58;97318.72;;;6.69;44.67
39729;BME280;25402;42.004;23.088;2024-02-23T01:32:27;97311.97;;;6.65;44.64
39729;BME280;25402;42.004;23.088;2024-02-23T01:34:54;97287.47;;;6.43;44.13
39729;BME280;25402;42.004;23.088;2024-02-23T01:37:21;97292.66;;;6.53;44.23
39729;BME280;25402;42.004;23.088;2024-02-23T01:39:48;97311.66;;;6.68;44.17
39729;BME280;25402;42.004;23.088;2024-02-23T01:42:15;97296.88;;;6.55;44.32
39729;BME280;25402;42.004;23.088;2024-02-23T01:44:43;97313.16;;;6.62;44.35
39729;BME280;25402;42.004;23.088;2024-02-23T01:47:10;97317.69;;;6.62;44.11
39729;BME280;25402;42.004;23.088;2024-02-23T01:49:39;97311.31;;;6.71;44.03
39729;BME280;25402;42.004;23.088;2024-02-23T01:52:06;97314.38;;;6.76;43.68
39729;BME280;25402;42.004;23.088;2024-02-23T01:54:33;97264.44;;;6.41;43.90
39729;BME280;25402;42.004;23.088;2024-02-23T01:57:01;97288.13;;;6.53;43.90
39729;BME280;25402;42.004;23.088;2024-02-23T01:59:28;97301.75;;;6.68;43.77
39729;BME280;25402;42.004;23.088;2024-02-23T02:01:56;97312.81;;;6.65;43.93
39729;BME280;25402;42.004;23.088;2024-02-23T02:04:23;97300.06;;;6.59;44.10
39729;BME280;25402;42.004;23.088;2024-02-23T02:06:52;97303.94;;;6.56;44.18
39729;BME280;25402;42.004;23.088;2024-02-23T02:09:19;97292.97;;;6.34;44.54
39729;BME280;25402;42.004;23.088;2024-02-23T02:11:46;97298.34;;;6.26;45.47
39729;BME280;25402;42.004;23.088;2024-02-23T02:14:14;97284.59;;;6.29;45.25
39729;BME280;25402;42.004;23.088;2024-02-23T02:16:41;97287.88;;;6.14;47.43
39729;BME280;25402;42.004;23.088;2024-02-23T02:19:09;97287.03;;;5.98;48.33
39729;BME280;25402;42.004;23.088;2024-02-23T02:21:37;97281.66;;;5.98;48.76
39729;BME280;25402;42.004;23.088;2024-02-23T02:24:06;97282.50;;;6.06;48.41
39729;BME280;25402;42.004;23.088;2024-02-23T02:26:34;97280.47;;;6.00;48.53
39729;BME280;25402;42.004;23.088;2024-02-23T02:29:01;97290.88;;;6.03;48.37
39729;BME280;25402;42.004;23.088;2024-02-23T02:31:29;97290.47;;;5.82;48.84
39729;BME280;25402;42.004;23.088;2024-02-23T02:34:03;97290.19;;;5.93;48.36
39729;BME280;25402;42.004;23.088;2024-02-23T02:36:30;97270.31;;;5.86;48.01
39729;BME280;25402;42.004;23.088;2024-02-23T02:38:57;97272.31;;;5.84;47.57
39729;BME280;25402;42.004;23.088;2024-02-23T02:41:28;97288.59;;;5.82;48.12
39729;BME280;25402;42.004;23.088;2024-02-23T02:43:56;97288.13;;;5.53;48.47
39729;BME280;25402;42.004;23.088;2024-02-23T02:46:23;97274.44;;;5.64;48.10
39729;BME280;25402;42.004;23.088;2024-02-23T02:48:50;97270.19;;;5.53;48.48
39729;BME280;25402;42.004;23.088;2024-02-23T02:51:17;97269.47;;;5.77;47.63
39729;BME280;25402;42.004;23.088;2024-02-23T02:53:44;97266.34;;;5.90;47.46
39729;BME280;25402;42.004;23.088;2024-02-23T02:56:11;97266.78;;;5.85;47.72
39729;BME280;25402;42.004;23.088;2024-02-23T02:58:39;97272.75;;;5.97;47.24
39729;BME280;25402;42.004;23.088;2024-02-23T03:01:07;97262.78;;;5.89;47.19
39729;BME280;25402;42.004;23.088;2024-02-23T03:03:34;97262.22;;;5.70;47.88
39729;BME280;25402;42.004;23.088;2024-02-23T03:06:02;97264.81;;;5.53;48.32
39729;BME280;25402;42.004;23.088;2024-02-23T03:08:29;97263.56;;;5.74;48.05
39729;BME280;25402;42.004;23.088;2024-02-23T03:10:56;97255.22;;;5.85;47.75
39729;BME280;25402;42.004;23.088;2024-02-23T03:13:23;97267.78;;;5.84;47.65
39729;BME280;25402;42.004;23.088;2024-02-23T03:15:52;97262.66;;;5.91;47.72
39729;BME280;25402;42.004;23.088;2024-02-23T03:18:19;97275.00;;;5.84;47.72
39729;BME280;25402;42.004;23.088;2024-02-23T03:20:46;97272.00;;;5.79;47.36
39729;BME280;25402;42.004;23.088;2024-02-23T03:23:13;97233.88;;;5.75;46.86
39729;BME280;25402;42.004;23.088;2024-02-23T03:25:40;97280.63;;;5.99;46.91
39729;BME280;25402;42.004;23.088;2024-02-23T03:28:07;97267.72;;;6.02;46.56
39729;BME280;25402;42.004;23.088;2024-02-23T03:30:34;97281.34;;;6.17;46.34
39729;BME280;25402;42.004;23.088;2024-02-23T03:33:03;97281.19;;;6.18;46.22
39729;BME280;25402;42.004;23.088;2024-02-23T03:35:30;97276.63;;;6.03;46.71
39729;BME280;25402;42.004;23.088;2024-02-23T03:37:57;97265.69;;;5.96;46.83
39729;BME280;25402;42.004;23.088;2024-02-23T03:40:24;97276.13;;;6.07;46.82
39729;BME280;25402;42.004;23.088;2024-02-23T03:42:51;97279.44;;;5.93;46.55
39729;BME280;25402;42.004;23.088;2024-02-23T03:45:18;97271.75;;;6.06;46.28
39729;BME280;25402;42.004;23.088;2024-02-23T03:47:45;97281.19;;;6.10;45.98
39729;BME280;25402;42.004;23.088;2024-02-23T03:50:14;97280.84;;;6.13;46.02
39729;BME280;25402;42.004;23.088;2024-02-23T03:52:41;97255.63;;;5.98;46.02
39729;BME280;25402;42.004;23.088;2024-02-23T03:55:08;97263.38;;;6.09;45.86
39729;BME280;25402;42.004;23.088;2024-02-23T03:57:36;97268.91;;;6.08;45.10
39729;BME280;25402;42.004;23.088;2024-02-23T04:00:04;97266.03;;;6.01;45.05
39729;BME280;25402;42.004;23.088;2024-02-23T04:02:33;97277.81;;;6.08;44.95
39729;BME280;25402;42.004;23.088;2024-02-23T04:05:00;97282.03;;;6.11;44.98
39729;BME280;25402;42.004;23.088;2024-02-23T04:07:29;97278.50;;;6.10;44.97
39729;BME280;25402;42.004;23.088;2024-02-23T04:09:56;97259.41;;;5.79;44.46
39729;BME280;25402;42.004;23.088;2024-02-23T04:12:23;97274.09;;;6.01;44.64
39729;BME280;25402;42.004;23.088;2024-02-23T04:14:50;97277.78;;;6.00;44.48
39729;BME280;25402;42.004;23.088;2024-02-23T04:17:18;97277.13;;;6.06;44.13
39729;BME280;25402;42.004;23.088;2024-02-23T04:19:45;97266.34;;;5.90;44.08
39729;BME280;25402;42.004;23.088;2024-02-23T04:22:12;97280.81;;;5.97;44.11
39729;BME280;25402;42.004;23.088;2024-02-23T04:24:41;97290.97;;;6.36;49.81
39729;BME280;25402;42.004;23.088;2024-02-23T04:27:08;97298.28;;;7.63;45.97
39729;BME280;25402;42.004;23.088;2024-02-23T04:29:35;97292.84;;;8.50;44.11
39729;BME280;25402;42.004;23.088;2024-02-23T04:32:03;97302.81;;;9.10;42.22
39729;BME280;25402;42.004;23.088;2024-02-23T04:34:31;97291.16;;;9.76;40.22
39729;BME280;25402;42.004;23.088;2024-02-23T04:36:58;97307.38;;;10.20;38.86
39729;BME280;25402;42.004;23.088;2024-02-23T04:39:25;97304.81;;;10.55;37.91
39729;BME280;25402;42.004;23.088;2024-02-23T04:41:53;97296.41;;;10.64;37.71
39729;BME280;25402;42.004;23.088;2024-02-23T04:44:20;97291.56;;;10.60;37.91
39729;BME280;25402;42.004;23.088;2024-02-23T04:46:47;97281.41;;;10.83;36.96
39729;BME280;25402;42.004;23.088;2024-02-23T04:49:15;97277.94;;;11.10;36.45
39729;BME280;25402;42.004;23.088;2024-02-23T04:51:42;97299.59;;;11.38;36.00
39729;BME280;25402;42.004;23.088;2024-02-23T04:54:09;97298.97;;;11.64;35.44
39729;BME280;25402;42.004;23.088;2024-02-23T04:56:36;97294.91;;;11.54;34.62
39729;BME280;25402;42.004;23.088;2024-02-23T04:59:07;97291.75;;;11.85;34.61
39729;BME280;25402;42.004;23.088;2024-02-23T05:01:35;97290.81;;;11.36;34.79
39729;BME280;25402;42.004;23.088;2024-02-23T05:04:03;97302.19;;;11.53;34.46
39729;BME280;25402;42.004;23.088;2024-02-23T05:06:30;97266.91;;;11.74;34.30
39729;BME280;25402;42.004;23.088;2024-02-23T05:08:57;97277.19;;;11.86;33.07
39729;BME280;25402;42.004;23.088;2024-02-23T05:11:24;97278.50;;;11.62;33.59
39729;BME280;25402;42.004;23.088;2024-02-23T05:13:51;97281.34;;;11.47;33.63
39729;BME280;25402;42.004;23.088;2024-02-23T05:16:21;97276.97;;;11.46;34.23
39729;BME280;25402;42.004;23.088;2024-02-23T05:18:48;97273.38;;;11.73;33.70
39729;BME280;25402;42.004;23.088;2024-02-23T05:21:15;97258.72;;;11.68;33.17
39729;BME280;25402;42.004;23.088;2024-02-23T05:23:43;97254.34;;;11.60;33.09
39729;BME280;25402;42.004;23.088;2024-02-23T05:26:11;97263.28;;;11.61;33.59
39729;BME280;25402;42.004;23.088;2024-02-23T05:28:39;97275.88;;;11.75;33.40
39729;BME280;25402;42.004;23.088;2024-02-23T05:31:06;97277.22;;;11.58;32.97
39729;BME280;25402;42.004;23.088;2024-02-23T05:33:34;97283.03;;;11.55;33.32
39729;BME280;25402;42.004;23.088;2024-02-23T05:36:04;97269.88;;;11.52;32.98
39729;BME280;25402;42.004;23.088;2024-02-23T05:38:31;97288.53;;;11.61;32.56
39729;BME280;25402;42.004;23.088;2024-02-23T05:40:58;97287.25;;;11.29;32.86
39729;BME280;25402;42.004;23.088;2024-02-23T05:43:25;97295.19;;;10.67;32.62
39729;BME280;25402;42.004;23.088;2024-02-23T05:45:52;97290.66;;;10.31;33.39
39729;BME280;25402;42.004;23.088;2024-02-23T05:48:22;97297.66;;;10.11;34.46
39729;BME280;25402;42.004;23.088;2024-02-23T05:50:51;97290.75;;;9.94;34.85
39729;BME280;25402;42.004;23.088;2024-02-23T05:53:18;97265.81;;;9.62;35.09
39729;BME280;25402;42.004;23.088;2024-02-23T05:55:45;97292.75;;;9.41;35.97
39729;BME280;25402;42.004;23.088;2024-02-23T05:58:12;97290.44;;;9.15;36.89
39729;BME280;25402;42.004;23.088;2024-02-23T06:00:45;97289.72;;;9.21;36.96
39729;BME280;25402;42.004;23.088;2024-02-23T06:03:13;97295.91;;;9.07;36.95
39729;BME280;25402;42.004;23.088;2024-02-23T06:05:40;97281.03;;;8.74;37.41
39729;BME280;25402;42.004;23.088;2024-02-23T06:08:09;97278.38;;;8.43;38.00
39729;BME280;25402;42.004;23.088;2024-02-23T06:10:36;97294.16;;;8.23;38.33
39729;BME280;25402;42.004;23.088;2024-02-23T06:13:03;97313.56;;;8.10;38.78
39729;BME280;25402;42.004;23.088;2024-02-23T06:15:30;97306.41;;;7.94;38.96
39729;BME280;25402;42.004;23.088;2024-02-23T06:17:58;97309.06;;;7.63;39.79
39729;BME280;25402;42.004;23.088;2024-02-23T06:20:25;97313.34;;;7.25;40.52
39729;BME280;25402;42.004;23.088;2024-02-23T06:22:52;97315.69;;;7.04;40.58
39729;BME280;25402;42.004;23.088;2024-02-23T06:25:21;97313.34;;;6.85;41.19
39729;BME280;25402;42.004;23.088;2024-02-23T06:27:48;97316.69;;;6.79;41.99
39729;BME280;25402;42.004;23.088;2024-02-23T06:30:15;97311.34;;;6.87;41.96
39729;BME280;25402;42.004;23.088;2024-02-23T06:32:42;97308.47;;;6.88;42.27
39729;BME280;25402;42.004;23.088;2024-02-23T06:35:11;97312.47;;;6.92;42.38
39729;BME280;25402;42.004;23.088;2024-02-23T06:37:38;97308.63;;;6.95;43.01
39729;BME280;25402;42.004;23.088;2024-02-23T06:40:06;97316.72;;;7.03;42.97
39729;BME280;25402;42.004;23.088;2024-02-23T06:42:35;97320.41;;;7.18;42.71
39729;BME280;25402;42.004;23.088;2024-02-23T06:45:03;97319.56;;;7.26;41.52
39729;BME280;25402;42.004;23.088;2024-02-23T06:47:30;97322.63;;;7.23;41.60
39729;BME280;25402;42.004;23.088;2024-02-23T06:49:57;97333.69;;;7.28;41.71
39729;BME280;25402;42.004;23.088;2024-02-23T06:52:24;97334.03;;;7.33;41.79
39729;BME280;25402;42.004;23.088;2024-02-23T06:54:51;97326.75;;;7.42;41.65
39729;BME280;25402;42.004;23.088;2024-02-23T06:57:18;97304.25;;;7.26;41.71
39729;BME280;25402;42.004;23.088;2024-02-23T06:59:47;97334.31;;;7.46;41.72
39729;BME280;25402;42.004;23.088;2024-02-23T07:02:14;97332.97;;;7.50;41.69
39729;BME280;25402;42.004;23.088;2024-02-23T07:04:41;97336.63;;;7.66;41.54
39729;BME280;25402;42.004;23.088;2024-02-23T07:07:08;97331.88;;;7.84;41.29
39729;BME280;25402;42.004;23.088;2024-02-23T07:09:37;97333.84;;;7.90;41.49
39729;BME280;25402;42.004;23.088;2024-02-23T07:12:05;97345.91;;;8.10;41.50
39729;BME280;25402;42.004;23.088;2024-02-23T07:14:32;97318.31;;;8.16;41.49
39729;BME280;25402;42.004;23.088;2024-02-23T07:17:01;97307.97;;;8.28;41.77
39729;BME280;25402;42.004;23.088;2024-02-23T07:19:28;97329.81;;;8.64;41.29
39729;BME280;25402;42.004;23.088;2024-02-23T07:21:55;97329.25;;;8.68;41.41
39729;BME280;25402;42.004;23.088;2024-02-23T07:24:23;97335.50;;;8.92;40.96
39729;BME280;25402;42.004;23.088;2024-02-23T07:26:50;97313.06;;;8.91;40.92
39729;BME280;25402;42.004;23.088;2024-02-23T07:29:17;97316.66;;;9.07;40.64
39729;BME280;25402;42.004;23.088;2024-02-23T07:31:45;97325.47;;;9.23;40.18
39729;BME280;25402;42.004;23.088;2024-02-23T07:34:13;97326.22;;;9.32;40.03
39729;BME280;25402;42.004;23.088;2024-02-23T07:36:40;97322.41;;;9.26;40.45
39729;BME280;25402;42.004;23.088;2024-02-23T07:39:08;97309.38;;;9.30;40.01
39729;BME280;25402;42.004;23.088;2024-02-23T07:41:36;97307.63;;;9.37;40.12
39729;BME280;25402;42.004;23.088;2024-02-23T07:44:04;97311.72;;;9.48;40.15
39729;BME280;25402;42.004;23.088;2024-02-23T07:46:31;97300.56;;;9.51;40.11
39729;BME280;25402;42.004;23.088;2024-02-23T07:48:58;97305.31;;;9.63;40.25
39729;BME280;25402;42.004;23.088;2024-02-23T07:51:26;97310.47;;;9.73;40.60
39729;BME280;25402;42.004;23.088;2024-02-23T07:53:53;97310.91;;;9.77;40.92
39729;BME280;25402;42.004;23.088;2024-02-23T07:56:20;97318.94;;;9.85;40.62
39729;BME280;25402;42.004;23.088;2024-02-23T07:58:47;97310.34;;;9.96;40.63
39729;BME280;25402;42.004;23.088;2024-02-23T08:01:14;97304.56;;;9.99;40.35
39729;BME280;25402;42.004;23.088;2024-02-23T08:03:42;97293.38;;;10.02;40.40
39729;BME280;25402;42.004;23.088;2024-02-23T08:06:09;97299.44;;;10.19;40.11
39729;BME280;25402;42.004;23.088;2024-02-23T08:08:40;97299.19;;;10.50;39.60
39729;BME280;25402;42.004;23.088;2024-02-23T08:11:07;97281.78;;;10.59;38.72
39729;BME280;25402;42.004;23.088;2024-02-23T08:13:34;97302.91;;;10.49;38.87
39729;BME280;25402;42.004;23.088;2024-02-23T08:16:01;97296.44;;;10.28;38.98
39729;BME280;25402;42.004;23.088;2024-02-23T08:18:29;97295.56;;;10.42;38.69
39729;BME280;25402;42.004;23.088;2024-02-23T08:20:56;97296.09;;;10.17;39.32
39729;BME280;25402;42.004;23.088;2024-02-23T08:23:23;97301.03;;;10.13;39.50
39729;BME280;25402;42.004;23.088;2024-02-23T08:25:52;97276.06;;;10.11;38.79
39729;BME280;25402;42.004;23.088;2024-02-23T08:28:22;97303.97;;;10.33;38.77
39729;BME280;25402;42.004;23.088;2024-02-23T08:30:49;97290.50;;;10.39;38.43
39729;BME280;25402;42.004;23.088;2024-02-23T08:33:16;97288.09;;;10.45;38.53
39729;BME280;25402;42.004;23.088;2024-02-23T08:35:43;97301.59;;;10.45;38.55
39729;BME280;25402;42.004;23.088;2024-02-23T08:38:10;97291.06;;;10.50;38.57
39729;BME280;25402;42.004;23.088;2024-02-23T08:40:37;97291.31;;;10.33;38.84
39729;BME280;25402;42.004;23.088;2024-02-23T08:43:06;97297.97;;;10.52;38.74
39729;BME280;25402;42.004;23.088;2024-02-23T08:45:33;97280.75;;;10.60;38.57
39729;BME280;25402;42.004;23.088;2024-02-23T08:48:03;97288.59;;;10.55;38.16
39729;BME280;25402;42.004;23.088;2024-02-23T08:50:31;97274.38;;;10.89;37.83
39729;BME280;25402;42.004;23.088;2024-02-23T08:52:58;97286.44;;;11.07;37.42
39729;BME280;25402;42.004;23.088;2024-02-23T08:55:25;97280.59;;;11.32;37.30
39729;BME280;25402;42.004;23.088;2024-02-23T08:57:52;97267.63;;;11.55;36.78
39729;BME280;25402;42.004;23.088;2024-02-23T09:00:21;97275.28;;;11.79;36.61
39729;BME280;25402;42.004;23.088;2024-02-23T09:02:49;97301.22;;;11.61;36.37
39729;BME280;25402;42.004;23.088;2024-02-23T09:05:17;97301.03;;;11.62;36.83
39729;BME280;25402;42.004;23.088;2024-02-23T09:07:45;97288.34;;;11.69;36.29
39729;BME280;25402;42.004;23.088;2024-02-23T09:10:13;97288.25;;;12.25;36.04
39729;BME280;25402;42.004;23.088;2024-02-23T09:12:40;97284.97;;;12.49;35.36
39729;BME280;25402;42.004;23.088;2024-02-23T09:15:08;97275.38;;;12.40;35.73
39729;BME280;25402;42.004;23.088;2024-02-23T09:17:37;97289.97;;;12.39;34.58
39729;BME280;25402;42.004;23.088;2024-02-23T09:20:05;97288.59;;;12.15;35.32
39729;BME280;25402;42.004;23.088;2024-02-23T09:22:32;97274.00;;;12.16;35.13
39729;BME280;25402;42.004;23.088;2024-02-23T09:24:59;97282.47;;;12.41;34.70
39729;BME280;25402;42.004;23.088;2024-02-23T09:27:26;97274.44;;;13.14;33.83
39729;BME280;25402;42.004;23.088;2024-02-23T09:29:56;97279.66;;;13.42;33.07
39729;BME280;25402;42.004;23.088;2024-02-23T09:32:24;97275.63;;;13.90;32.98
39729;BME280;25402;42.004;23.088;2024-02-23T09:34:52;97272.59;;;14.32;32.09
39729;BME280;25402;42.004;23.088;2024-02-23T09:37:19;97264.28;;;14.51;31.30
39729;BME280;25402;42.004;23.088;2024-02-23T09:39:46;97265.44;;;15.07;31.16
39729;BME280;25402;42.004;23.088;2024-02-23T09:42:14;97255.25;;;14.89;30.69
39729;BME280;25402;42.004;23.088;2024-02-23T09:44:44;97270.56;;;15.21;29.86
39729;BME280;25402;42.004;23.088;2024-02-23T09:47:13;97270.09;;;15.24;29.88
39729;BME280;25402;42.004;23.088;2024-02-23T09:49:41;97268.94;;;15.39;29.99
39729;BME280;25402;42.004;23.088;2024-02-23T09:52:12;97263.19;;;15.90;29.27
39729;BME280;25402;42.004;23.088;2024-02-23T09:54:40;97251.59;;;16.13;28.69
39729;BME280;25402;42.004;23.088;2024-02-23T09:57:07;97243.28;;;16.38;28.34
39729;BME280;25402;42.004;23.088;2024-02-23T09:59:35;97243.41;;;15.94;28.33
39729;BME280;25402;42.004;23.088;2024-02-23T10:02:07;97248.44;;;15.29;28.54
39729;BME280;25402;42.004;23.088;2024-02-23T10:04:35;97240.56;;;15.21;28.46
39729;BME280;25402;42.004;23.088;2024-02-23T10:07:04;97243.22;;;15.28;29.39
39729;BME280;25402;42.004;23.088;2024-02-23T10:09:33;97224.84;;;15.23;28.97
39729;BME280;25402;42.004;23.088;2024-02-23T10:12:01;97218.19;;;14.88;29.00
39729;BME280;25402;42.004;23.088;2024-02-23T10:14:28;97227.75;;;14.66;29.61
39729;BME280;25402;42.004;23.088;2024-02-23T10:16:55;97213.84;;;14.80;29.63
39729;BME280;25402;42.004;23.088;2024-02-23T10:19:23;97219.97;;;15.69;31.36
39729;BME280;25402;42.004;23.088;2024-02-23T10:21:54;97213.22;;;16.08;29.63
39729;BME280;25402;42.004;23.088;2024-02-23T10:24:24;97212.47;;;16.19;27.63
39729;BME280;25402;42.004;23.088;2024-02-23T10:26:53;97194.94;;;15.78;27.56
39729;BME280;25402;42.004;23.088;2024-02-23T10:29:20;97212.63;;;15.69;28.30
39729;BME280;25402;42.004;23.088;2024-02-23T10:31:47;97211.34;;;16.56;29.58
39729;BME280;25402;42.004;23.088;2024-02-23T10:34:18;97201.34;;;16.92;27.62
39729;BME280;25402;42.004;23.088;2024-02-23T10:36:45;97210.69;;;17.14;27.36
39729;BME280;25402;42.004;23.088;2024-02-23T10:39:17;97201.88;;;17.59;28.04
39729;BME280;25402;42.004;23.088;2024-02-23T10:41:48;97202.09;;;17.69;26.12
39729;BME280;25402;42.004;23.088;2024-02-23T10:44:18;97190.91;;;17.82;26.45
39729;BME280;25402;42.004;23.088;2024-02-23T10:46:46;97187.75;;;18.14;26.48
39729;BME280;25402;42.004;23.088;2024-02-23T10:49:14;97191.84;;;17.99;25.37
39729;BME280;25402;42.004;23.088;2024-02-23T10:51:43;97186.50;;;17.69;25.71
39729;BME280;25402;42.004;23.088;2024-02-23T10:54:13;97184.09;;;18.08;26.85
39729;BME280;25402;42.004;23.088;2024-02-23T10:56:41;97173.44;;;18.23;26.56
39729;BME280;25402;42.004;23.088;2024-02-23T10:59:08;97179.28;;;18.55;25.26
39729;BME280;25402;42.004;23.088;2024-02-23T11:01:37;97171.47;;;18.64;24.37
39729;BME280;25402;42.004;23.088;2024-02-23T11:04:07;97168.84;;;18.86;24.73
39729;BME280;25402;42.004;23.088;2024-02-23T11:06:35;97167.88;;;19.08;25.57
39729;BME280;25402;42.004;23.088;2024-02-23T11:09:05;97162.81;;;19.17;24.02
39729;BME280;25402;42.004;23.088;2024-02-23T11:11:33;97159.59;;;18.75;22.82
39729;BME280;25402;42.004;23.088;2024-02-23T11:14:02;97154.59;;;18.27;23.38
39729;BME280;25402;42.004;23.088;2024-02-23T11:16:31;97147.41;;;18.66;23.75
39729;BME280;25402;42.004;23.088;2024-02-23T11:19:08;97142.59;;;18.56;23.47
39729;BME280;25402;42.004;23.088;2024-02-23T11:21:37;97150.41;;;18.08;23.81
39729;BME280;25402;42.004;23.088;2024-02-23T11:24:04;97148.91;;;18.57;24.23
39729;BME280;25402;42.004;23.088;2024-02-23T11:26:30;97146.09;;;18.85;24.13
39729;BME280;25402;42.004;23.088;2024-02-23T11:28:59;97138.03;;;18.95;24.10
39729;BME280;25402;42.004;23.088;2024-02-23T11:31:29;97138.94;;;19.34;23.84
39729;BME280;25402;42.004;23.088;2024-02-23T11:33:57;97138.44;;;19.21;22.38
39729;BME280;25402;42.004;23.088;2024-02-23T11:36:28;97123.66;;;19.60;23.08
39729;BME280;25402;42.004;23.088;2024-02-23T11:38:57;97133.38;;;18.96;22.61
39729;BME280;25402;42.004;23.088;2024-02-23T11:41:25;97135.47;;;18.89;22.62
39729;BME280;25402;42.004;23.088;2024-02-23T11:43:53;97113.38;;;18.79;23.48
39729;BME280;25402;42.004;23.088;2024-02-23T11:46:21;97122.09;;;19.09;23.04
39729;BME280;25402;42.004;23.088;2024-02-23T11:48:49;97119.31;;;18.59;23.18
39729;BME280;25402;42.004;23.088;2024-02-23T11:51:20;97115.03;;;19.13;23.86
39729;BME280;25402;42.004;23.088;2024-02-23T11:53:49;97126.53;;;19.49;23.56
39729;BME280;25402;42.004;23.088;2024-02-23T11:56:16;97116.19;;;19.56;22.61
39729;BME280;25402;42.004;23.088;2024-02-23T11:58:44;97106.94;;;19.62;22.70
39729;BME280;25402;42.004;23.088;2024-02-23T12:01:11;97105.81;;;19.80;22.54
39729;BME280;25402;42.004;23.088;2024-02-23T12:03:38;97106.06;;;19.78;21.98
39729;BME280;25402;42.004;23.088;2024-02-23T12:06:07;97104.78;;;19.64;22.14
39729;BME280;25402;42.004;23.088;2024-02-23T12:08:35;97096.75;;;19.79;22.85
39729;BME280;25402;42.004;23.088;2024-02-23T12:11:06;97109.47;;;19.47;22.01
39729;BME280;25402;42.004;23.088;2024-02-23T12:13:34;97107.16;;;19.17;22.73
39729;BME280;25402;42.004;23.088;2024-02-23T12:16:01;97098.63;;;19.35;22.79
39729;BME280;25402;42.004;23.088;2024-02-23T12:18:29;97101.41;;;19.18;22.45
39729;BME280;25402;42.004;23.088;2024-02-23T12:20:59;97098.56;;;19.30;22.94
39729;BME280;25402;42.004;23.088;2024-02-23T12:23:27;97100.19;;;19.48;22.68
39729;BME280;25402;42.004;23.088;2024-02-23T12:25:54;97090.34;;;19.52;22.70
39729;BME280;25402;42.004;23.088;2024-02-23T12:28:24;97093.28;;;19.67;22.53
39729;BME280;25402;42.004;23.088;2024-02-23T12:30:59;97084.28;;;19.50;21.64
39729;BME280;25402;42.004;23.088;2024-02-23T12:33:28;97088.03;;;19.43;22.83
39729;BME280;25402;42.004;23.088;2024-02-23T12:35:56;97081.97;;;19.41;22.48
39729;BME280;25402;42.004;23.088;2024-02-23T12:38:25;97085.31;;;19.43;22.73
39729;BME280;25402;42.004;23.088;2024-02-23T12:40:52;97077.69;;;19.29;22.73
39729;BME280;25402;42.004;23.088;2024-02-23T12:43:19;97089.13;;;18.70;22.71
39729;BME280;25402;42.004;23.088;2024-02-23T12:45:48;97086.47;;;18.75;23.64
39729;BME280;25402;42.004;23.088;2024-02-23T12:48:16;97082.81;;;18.70;23.49
39729;BME280;25402;42.004;23.088;2024-02-23T12:50:43;97088.25;;;18.36;23.36
39729;BME280;25402;42.004;23.088;2024-02-23T12:53:12;97076.19;;;18.66;23.04
39729;BME280;25402;42.004;23.088;2024-02-23T12:55:57;97077.41;;;18.92;23.46
39729;BME280;25402;42.004;23.088;2024-02-23T12:58:24;97079.50;;;18.85;23.18